sensor_id;sensor_type;location;lat;lon;timestamp;temperature;humidity
24250;DHT22;12379;49.820;8.648;2023-08-12T00:00:57;21.20;99.90
24250;DHT22;12379;49.820;8.648;2023-08-12T00:03:22;21.20;99.90
24250;DHT22;12379;49.820;8.648;2023-08-12T00:05:48;21.20;99.90
24250;DHT22;12379;49.820;8.648;2023-08-12T00:08:14;21.30;99.90
24250;DHT22;12379;49.820;8.648;2023-08-12T00:10:39;21.20;99.90
24250;DHT22;12379;49.820;8.648;2023-08-12T00:13:05;21.20;99.90
24250;DHT22;12379;49.820;8.648;2023-08-12T00:15:30;21.20;99.90
24250;DHT22;12379;49.820;8.648;2023-08-12T00:17:56;21.20;99.90
24250;DHT22;12379;49.820;8.648;2023-08-12T00:20:25;21.10;99.90
24250;DHT22;12379;49.820;8.648;2023-08-12T00:22:50;21.20;99.90
24250;DHT22;12379;49.820;8.648;2023-08-12T00:25:16;21.10;99.90
24250;DHT22;12379;49.820;8.648;2023-08-12T00:27:41;21.20;99.90
24250;DHT22;12379;49.820;8.648;2023-08-12T00:30:07;21.20;99.90
24250;DHT22;12379;49.820;8.648;2023-08-12T00:32:34;21.20;99.90
24250;DHT22;12379;49.820;8.648;2023-08-12T00:34:59;21.10;99.90
24250;DHT22;12379;49.820;8.648;2023-08-12T00:37:25;21.10;99.90
24250;DHT22;12379;49.820;8.648;2023-08-12T00:39:50;21.10;99.90
24250;DHT22;12379;49.820;8.648;2023-08-12T00:42:16;21.10;99.90
24250;DHT22;12379;49.820;8.648;2023-08-12T00:44:41;21.10;99.90
24250;DHT22;12379;49.820;8.648;2023-08-12T00:47:07;21.10;99.90
24250;DHT22;12379;49.820;8.648;2023-08-12T00:49:33;21.10;99.90
24250;DHT22;12379;49.820;8.648;2023-08-12T00:51:58;21.10;99.90
24250;DHT22;12379;49.820;8.648;2023-08-12T00:54:26;21.00;99.90
24250;DHT22;12379;49.820;8.648;2023-08-12T00:56:53;21.10;99.90
24250;DHT22;12379;49.820;8.648;2023-08-12T00:59:20;21.00;99.90
24250;DHT22;12379;49.820;8.648;2023-08-12T01:01:47;21.10;99.90
24250;DHT22;12379;49.820;8.648;2023-08-12T01:04:13;21.10;99.90
24250;DHT22;12379;49.820;8.648;2023-08-12T01:06:39;21.10;99.90
24250;DHT22;12379;49.820;8.648;2023-08-12T01:09:05;21.10;99.90
24250;DHT22;12379;49.820;8.648;2023-08-12T01:12:03;21.10;99.90
24250;DHT22;12379;49.820;8.648;2023-08-12T01:14:43;21.10;99.90
24250;DHT22;12379;49.820;8.648;2023-08-12T01:17:11;21.20;99.90
24250;DHT22;12379;49.820;8.648;2023-08-12T01:19:40;21.20;99.90
24250;DHT22;12379;49.820;8.648;2023-08-12T01:22:11;21.20;99.90
24250;DHT22;12379;49.820;8.648;2023-08-12T01:24:42;21.20;99.90
24250;DHT22;12379;49.820;8.648;2023-08-12T01:27:09;21.30;99.90
24250;DHT22;12379;49.820;8.648;2023-08-12T01:29:43;21.30;99.90
24250;DHT22;12379;49.820;8.648;2023-08-12T01:34:53;21.30;99.90
24250;DHT22;12379;49.820;8.648;2023-08-12T01:37:24;21.30;99.90
24250;DHT22;12379;49.820;8.648;2023-08-12T01:39:51;21.30;99.90
24250;DHT22;12379;49.820;8.648;2023-08-12T01:42:18;21.30;99.90
24250;DHT22;12379;49.820;8.648;2023-08-12T01:44:45;21.30;99.90
24250;DHT22;12379;49.820;8.648;2023-08-12T01:47:11;21.30;99.90
24250;DHT22;12379;49.820;8.648;2023-08-12T01:49:37;21.20;99.90
24250;DHT22;12379;49.820;8.648;2023-08-12T01:52:02;21.20;99.90
24250;DHT22;12379;49.820;8.648;2023-08-12T01:54:28;21.20;99.90
24250;DHT22;12379;49.820;8.648;2023-08-12T01:57:02;21.20;99.90
24250;DHT22;12379;49.820;8.648;2023-08-12T01:59:33;21.20;99.90
24250;DHT22;12379;49.820;8.648;2023-08-12T02:01:59;21.20;99.90
24250;DHT22;12379;49.820;8.648;2023-08-12T02:04:26;21.20;99.90
24250;DHT22;12379;49.820;8.648;2023-08-12T02:06:52;21.20;99.90
24250;DHT22;12379;49.820;8.648;2023-08-12T02:09:17;21.10;99.90
24250;DHT22;12379;49.820;8.648;2023-08-12T02:11:43;21.00;99.90
24250;DHT22;12379;49.820;8.648;2023-08-12T02:14:08;21.00;99.90
24250;DHT22;12379;49.820;8.648;2023-08-12T02:16:34;20.90;99.90
24250;DHT22;12379;49.820;8.648;2023-08-12T02:18:59;20.90;99.90
24250;DHT22;12379;49.820;8.648;2023-08-12T02:21:25;20.90;99.90
24250;DHT22;12379;49.820;8.648;2023-08-12T02:23:51;20.90;99.90
24250;DHT22;12379;49.820;8.648;2023-08-12T02:26:16;20.90;99.90
24250;DHT22;12379;49.820;8.648;2023-08-12T02:28:42;20.90;99.90
24250;DHT22;12379;49.820;8.648;2023-08-12T02:31:07;20.90;99.90
24250;DHT22;12379;49.820;8.648;2023-08-12T02:33:33;20.90;99.90
24250;DHT22;12379;49.820;8.648;2023-08-12T02:35:58;20.90;99.90
24250;DHT22;12379;49.820;8.648;2023-08-12T02:38:24;20.90;99.90
24250;DHT22;12379;49.820;8.648;2023-08-12T02:40:50;20.90;99.90
24250;DHT22;12379;49.820;8.648;2023-08-12T02:43:16;21.00;99.90
24250;DHT22;12379;49.820;8.648;2023-08-12T02:45:42;21.00;99.90
24250;DHT22;12379;49.820;8.648;2023-08-12T02:48:09;21.00;99.90
24250;DHT22;12379;49.820;8.648;2023-08-12T02:50:35;21.10;99.90
24250;DHT22;12379;49.820;8.648;2023-08-12T02:53:01;21.10;99.90
24250;DHT22;12379;49.820;8.648;2023-08-12T02:55:26;21.00;99.90
24250;DHT22;12379;49.820;8.648;2023-08-12T02:57:52;21.10;99.90
24250;DHT22;12379;49.820;8.648;2023-08-12T03:00:17;21.10;99.90
24250;DHT22;12379;49.820;8.648;2023-08-12T03:02:43;21.10;99.90
24250;DHT22;12379;49.820;8.648;2023-08-12T03:05:09;21.10;99.90
24250;DHT22;12379;49.820;8.648;2023-08-12T03:07:34;21.10;99.90
24250;DHT22;12379;49.820;8.648;2023-08-12T03:10:00;21.00;99.90
24250;DHT22;12379;49.820;8.648;2023-08-12T03:12:26;21.00;99.90
24250;DHT22;12379;49.820;8.648;2023-08-12T03:14:51;21.00;99.90
24250;DHT22;12379;49.820;8.648;2023-08-12T03:17:17;21.00;99.90
24250;DHT22;12379;49.820;8.648;2023-08-12T03:19:43;20.90;99.90
24250;DHT22;12379;49.820;8.648;2023-08-12T03:22:08;20.90;99.90
24250;DHT22;12379;49.820;8.648;2023-08-12T03:24:34;20.90;99.90
24250;DHT22;12379;49.820;8.648;2023-08-12T03:26:59;20.90;99.90
24250;DHT22;12379;49.820;8.648;2023-08-12T03:29:25;20.90;99.90
24250;DHT22;12379;49.820;8.648;2023-08-12T03:31:50;20.80;99.90
24250;DHT22;12379;49.820;8.648;2023-08-12T03:34:16;20.90;99.90
24250;DHT22;12379;49.820;8.648;2023-08-12T03:36:42;20.90;99.90
24250;DHT22;12379;49.820;8.648;2023-08-12T03:39:07;20.90;99.90
24250;DHT22;12379;49.820;8.648;2023-08-12T03:41:33;20.90;99.90
24250;DHT22;12379;49.820;8.648;2023-08-12T03:43:59;20.90;99.90
24250;DHT22;12379;49.820;8.648;2023-08-12T03:46:24;20.90;99.90
24250;DHT22;12379;49.820;8.648;2023-08-12T03:48:50;20.90;99.90
24250;DHT22;12379;49.820;8.648;2023-08-12T03:51:15;20.80;99.90
24250;DHT22;12379;49.820;8.648;2023-08-12T03:53:41;20.80;99.90
24250;DHT22;12379;49.820;8.648;2023-08-12T03:56:06;20.80;99.90
24250;DHT22;12379;49.820;8.648;2023-08-12T03:58:32;20.80;99.90
24250;DHT22;12379;49.820;8.648;2023-08-12T04:00:57;20.70;99.90
24250;DHT22;12379;49.820;8.648;2023-08-12T04:03:23;20.70;99.90
24250;DHT22;12379;49.820;8.648;2023-08-12T04:05:52;20.60;99.90
24250;DHT22;12379;49.820;8.648;2023-08-12T04:08:22;20.50;99.90
24250;DHT22;12379;49.820;8.648;2023-08-12T04:10:48;20.50;99.90
24250;DHT22;12379;49.820;8.648;2023-08-12T04:13:14;20.60;99.90
24250;DHT22;12379;49.820;8.648;2023-08-12T04:15:40;20.50;99.90
24250;DHT22;12379;49.820;8.648;2023-08-12T04:18:06;20.50;99.90
24250;DHT22;12379;49.820;8.648;2023-08-12T04:20:31;20.40;99.90
24250;DHT22;12379;49.820;8.648;2023-08-12T04:22:57;20.30;99.90
24250;DHT22;12379;49.820;8.648;2023-08-12T04:25:22;20.20;99.90
24250;DHT22;12379;49.820;8.648;2023-08-12T04:27:48;20.20;99.90
24250;DHT22;12379;49.820;8.648;2023-08-12T04:30:17;20.20;99.90
24250;DHT22;12379;49.820;8.648;2023-08-12T04:32:43;20.30;99.90
24250;DHT22;12379;49.820;8.648;2023-08-12T04:35:08;20.30;99.90
24250;DHT22;12379;49.820;8.648;2023-08-12T04:37:37;20.30;99.90
24250;DHT22;12379;49.820;8.648;2023-08-12T04:40:03;20.30;99.90
24250;DHT22;12379;49.820;8.648;2023-08-12T04:42:30;20.40;99.90
24250;DHT22;12379;49.820;8.648;2023-08-12T04:44:55;20.40;99.90
24250;DHT22;12379;49.820;8.648;2023-08-12T04:47:21;20.30;99.90
24250;DHT22;12379;49.820;8.648;2023-08-12T04:49:47;20.30;99.90
24250;DHT22;12379;49.820;8.648;2023-08-12T04:52:12;20.30;99.90
24250;DHT22;12379;49.820;8.648;2023-08-12T04:54:38;20.20;99.90
24250;DHT22;12379;49.820;8.648;2023-08-12T04:57:04;20.20;99.90
24250;DHT22;12379;49.820;8.648;2023-08-12T04:59:31;20.30;99.90
24250;DHT22;12379;49.820;8.648;2023-08-12T05:01:56;20.30;99.90
24250;DHT22;12379;49.820;8.648;2023-08-12T05:04:22;20.40;99.90
24250;DHT22;12379;49.820;8.648;2023-08-12T05:06:47;20.50;99.90
24250;DHT22;12379;49.820;8.648;2023-08-12T05:09:14;20.60;99.90
24250;DHT22;12379;49.820;8.648;2023-08-12T05:11:39;20.80;99.90
24250;DHT22;12379;49.820;8.648;2023-08-12T05:14:05;20.80;99.90
24250;DHT22;12379;49.820;8.648;2023-08-12T05:16:32;20.90;99.90
24250;DHT22;12379;49.820;8.648;2023-08-12T05:18:57;20.90;99.90
24250;DHT22;12379;49.820;8.648;2023-08-12T05:21:23;20.80;99.90
24250;DHT22;12379;49.820;8.648;2023-08-12T05:23:48;20.80;99.90
24250;DHT22;12379;49.820;8.648;2023-08-12T05:26:14;20.80;99.90
24250;DHT22;12379;49.820;8.648;2023-08-12T05:28:40;20.80;99.90
24250;DHT22;12379;49.820;8.648;2023-08-12T05:31:05;20.70;99.90
24250;DHT22;12379;49.820;8.648;2023-08-12T05:33:31;20.70;99.90
24250;DHT22;12379;49.820;8.648;2023-08-12T05:35:57;20.70;99.90
24250;DHT22;12379;49.820;8.648;2023-08-12T05:38:22;20.80;99.90
24250;DHT22;12379;49.820;8.648;2023-08-12T05:40:48;20.80;99.90
24250;DHT22;12379;49.820;8.648;2023-08-12T05:43:13;20.90;99.90
24250;DHT22;12379;49.820;8.648;2023-08-12T05:45:39;20.90;99.90
24250;DHT22;12379;49.820;8.648;2023-08-12T05:48:05;20.90;99.90
24250;DHT22;12379;49.820;8.648;2023-08-12T05:50:30;21.00;99.90
24250;DHT22;12379;49.820;8.648;2023-08-12T05:52:56;21.10;99.90
24250;DHT22;12379;49.820;8.648;2023-08-12T05:55:22;21.30;99.90
24250;DHT22;12379;49.820;8.648;2023-08-12T05:57:47;21.40;99.90
24250;DHT22;12379;49.820;8.648;2023-08-12T06:00:13;21.50;99.90
24250;DHT22;12379;49.820;8.648;2023-08-12T06:02:38;21.70;99.90
24250;DHT22;12379;49.820;8.648;2023-08-12T06:05:04;21.90;99.90
24250;DHT22;12379;49.820;8.648;2023-08-12T06:07:30;22.10;99.90
24250;DHT22;12379;49.820;8.648;2023-08-12T06:09:55;22.20;99.90
24250;DHT22;12379;49.820;8.648;2023-08-12T06:12:21;22.40;99.90
24250;DHT22;12379;49.820;8.648;2023-08-12T06:14:46;22.60;99.90
24250;DHT22;12379;49.820;8.648;2023-08-12T06:17:12;22.90;99.90
24250;DHT22;12379;49.820;8.648;2023-08-12T06:19:37;23.00;99.90
24250;DHT22;12379;49.820;8.648;2023-08-12T06:22:03;23.00;99.90
24250;DHT22;12379;49.820;8.648;2023-08-12T06:24:29;23.30;99.90
24250;DHT22;12379;49.820;8.648;2023-08-12T06:26:54;23.50;99.90
24250;DHT22;12379;49.820;8.648;2023-08-12T06:29:20;23.60;99.90
24250;DHT22;12379;49.820;8.648;2023-08-12T06:31:45;23.70;99.90
24250;DHT22;12379;49.820;8.648;2023-08-12T06:34:11;23.80;99.90
24250;DHT22;12379;49.820;8.648;2023-08-12T06:36:37;23.80;99.90
24250;DHT22;12379;49.820;8.648;2023-08-12T06:39:02;24.60;99.90
24250;DHT22;12379;49.820;8.648;2023-08-12T06:41:28;25.30;99.90
24250;DHT22;12379;49.820;8.648;2023-08-12T06:43:54;25.30;99.90
24250;DHT22;12379;49.820;8.648;2023-08-12T06:46:19;25.10;99.90
24250;DHT22;12379;49.820;8.648;2023-08-12T06:48:45;26.10;99.90
24250;DHT22;12379;49.820;8.648;2023-08-12T06:51:10;26.90;99.90
24250;DHT22;12379;49.820;8.648;2023-08-12T06:53:37;27.20;99.90
24250;DHT22;12379;49.820;8.648;2023-08-12T06:56:03;27.30;99.90
24250;DHT22;12379;49.820;8.648;2023-08-12T06:58:29;27.20;99.90
24250;DHT22;12379;49.820;8.648;2023-08-12T07:00:54;26.90;99.90
24250;DHT22;12379;49.820;8.648;2023-08-12T07:03:20;27.00;99.90
24250;DHT22;12379;49.820;8.648;2023-08-12T07:05:45;27.10;99.90
24250;DHT22;12379;49.820;8.648;2023-08-12T07:08:11;26.60;99.90
24250;DHT22;12379;49.820;8.648;2023-08-12T07:10:40;26.60;99.90
24250;DHT22;12379;49.820;8.648;2023-08-12T07:13:06;26.50;99.90
24250;DHT22;12379;49.820;8.648;2023-08-12T07:15:32;26.10;99.90
24250;DHT22;12379;49.820;8.648;2023-08-12T07:17:57;25.60;99.90
24250;DHT22;12379;49.820;8.648;2023-08-12T07:20:27;25.50;99.90
24250;DHT22;12379;49.820;8.648;2023-08-12T07:22:53;25.30;99.90
24250;DHT22;12379;49.820;8.648;2023-08-12T07:25:18;25.10;99.90
24250;DHT22;12379;49.820;8.648;2023-08-12T07:27:44;24.90;99.90
24250;DHT22;12379;49.820;8.648;2023-08-12T07:30:10;24.80;99.90
24250;DHT22;12379;49.820;8.648;2023-08-12T07:32:37;25.20;99.90
24250;DHT22;12379;49.820;8.648;2023-08-12T07:35:03;26.10;99.90
24250;DHT22;12379;49.820;8.648;2023-08-12T07:37:31;26.90;99.90
24250;DHT22;12379;49.820;8.648;2023-08-12T07:39:57;27.60;99.90
24250;DHT22;12379;49.820;8.648;2023-08-12T07:42:23;27.60;99.90
24250;DHT22;12379;49.820;8.648;2023-08-12T07:44:48;27.40;99.90
24250;DHT22;12379;49.820;8.648;2023-08-12T07:47:14;27.30;99.90
24250;DHT22;12379;49.820;8.648;2023-08-12T07:49:41;27.00;99.90
24250;DHT22;12379;49.820;8.648;2023-08-12T07:52:06;26.90;99.90
24250;DHT22;12379;49.820;8.648;2023-08-12T07:54:32;27.40;99.90
24250;DHT22;12379;49.820;8.648;2023-08-12T07:56:57;26.90;99.90
24250;DHT22;12379;49.820;8.648;2023-08-12T07:59:23;26.70;99.90
24250;DHT22;12379;49.820;8.648;2023-08-12T08:01:48;26.10;99.90
24250;DHT22;12379;49.820;8.648;2023-08-12T08:04:14;25.80;99.90
24250;DHT22;12379;49.820;8.648;2023-08-12T08:06:40;25.50;99.90
24250;DHT22;12379;49.820;8.648;2023-08-12T08:09:05;25.40;99.90
24250;DHT22;12379;49.820;8.648;2023-08-12T08:11:31;25.90;99.90
24250;DHT22;12379;49.820;8.648;2023-08-12T08:13:58;26.10;99.90
24250;DHT22;12379;49.820;8.648;2023-08-12T08:16:24;27.00;99.90
24250;DHT22;12379;49.820;8.648;2023-08-12T08:18:49;28.00;99.90
24250;DHT22;12379;49.820;8.648;2023-08-12T08:21:15;28.40;99.90
24250;DHT22;12379;49.820;8.648;2023-08-12T08:23:41;28.20;99.90
24250;DHT22;12379;49.820;8.648;2023-08-12T08:26:08;27.40;99.90
24250;DHT22;12379;49.820;8.648;2023-08-12T08:28:33;27.00;99.90
24250;DHT22;12379;49.820;8.648;2023-08-12T08:30:59;27.10;99.90
24250;DHT22;12379;49.820;8.648;2023-08-12T08:33:26;26.80;99.90
24250;DHT22;12379;49.820;8.648;2023-08-12T08:35:52;26.90;99.90
24250;DHT22;12379;49.820;8.648;2023-08-12T08:38:17;26.80;99.90
24250;DHT22;12379;49.820;8.648;2023-08-12T08:40:44;26.90;99.90
24250;DHT22;12379;49.820;8.648;2023-08-12T08:43:10;27.30;99.90
24250;DHT22;12379;49.820;8.648;2023-08-12T08:45:38;27.50;99.90
24250;DHT22;12379;49.820;8.648;2023-08-12T08:48:05;27.70;99.90
24250;DHT22;12379;49.820;8.648;2023-08-12T08:50:31;28.00;99.90
24250;DHT22;12379;49.820;8.648;2023-08-12T08:53:00;28.00;99.90
24250;DHT22;12379;49.820;8.648;2023-08-12T08:55:26;27.40;99.90
24250;DHT22;12379;49.820;8.648;2023-08-12T08:57:56;27.00;99.90
24250;DHT22;12379;49.820;8.648;2023-08-12T09:00:25;26.60;99.90
24250;DHT22;12379;49.820;8.648;2023-08-12T09:02:54;26.40;99.90
24250;DHT22;12379;49.820;8.648;2023-08-12T09:05:20;26.20;99.90
24250;DHT22;12379;49.820;8.648;2023-08-12T09:07:47;26.10;99.90
24250;DHT22;12379;49.820;8.648;2023-08-12T09:10:14;26.30;99.90
24250;DHT22;12379;49.820;8.648;2023-08-12T09:12:40;26.30;99.90
24250;DHT22;12379;49.820;8.648;2023-08-12T09:15:06;26.20;99.90
24250;DHT22;12379;49.820;8.648;2023-08-12T09:17:34;25.90;99.90
24250;DHT22;12379;49.820;8.648;2023-08-12T09:20:00;25.70;99.90
24250;DHT22;12379;49.820;8.648;2023-08-12T09:22:26;25.70;99.90
24250;DHT22;12379;49.820;8.648;2023-08-12T09:24:58;26.00;99.90
24250;DHT22;12379;49.820;8.648;2023-08-12T09:27:24;26.20;99.90
24250;DHT22;12379;49.820;8.648;2023-08-12T09:29:50;26.20;99.90
24250;DHT22;12379;49.820;8.648;2023-08-12T09:32:20;26.40;99.90
24250;DHT22;12379;49.820;8.648;2023-08-12T09:34:50;27.40;99.90
24250;DHT22;12379;49.820;8.648;2023-08-12T09:37:17;27.80;99.90
24250;DHT22;12379;49.820;8.648;2023-08-12T09:39:47;28.50;99.90
24250;DHT22;12379;49.820;8.648;2023-08-12T09:42:13;29.40;99.90
24250;DHT22;12379;49.820;8.648;2023-08-12T09:44:39;29.80;99.90
24250;DHT22;12379;49.820;8.648;2023-08-12T09:47:06;30.00;99.90
24250;DHT22;12379;49.820;8.648;2023-08-12T09:49:32;30.10;99.90
24250;DHT22;12379;49.820;8.648;2023-08-12T09:51:57;30.10;99.90
24250;DHT22;12379;49.820;8.648;2023-08-12T09:54:28;30.40;99.90
24250;DHT22;12379;49.820;8.648;2023-08-12T09:56:57;30.60;99.90
24250;DHT22;12379;49.820;8.648;2023-08-12T09:59:24;30.00;99.90
24250;DHT22;12379;49.820;8.648;2023-08-12T10:01:52;29.30;99.90
24250;DHT22;12379;49.820;8.648;2023-08-12T10:04:22;28.70;99.90
24250;DHT22;12379;49.820;8.648;2023-08-12T10:06:48;28.20;99.90
24250;DHT22;12379;49.820;8.648;2023-08-12T10:09:15;28.20;99.90
24250;DHT22;12379;49.820;8.648;2023-08-12T10:11:42;27.60;99.90
24250;DHT22;12379;49.820;8.648;2023-08-12T10:14:10;27.20;99.90
24250;DHT22;12379;49.820;8.648;2023-08-12T10:16:36;27.00;99.90
24250;DHT22;12379;49.820;8.648;2023-08-12T10:19:10;26.90;99.90
24250;DHT22;12379;49.820;8.648;2023-08-12T10:21:36;26.70;99.90
24250;DHT22;12379;49.820;8.648;2023-08-12T10:24:03;26.20;99.90
24250;DHT22;12379;49.820;8.648;2023-08-12T10:26:30;26.00;99.90
24250;DHT22;12379;49.820;8.648;2023-08-12T10:28:57;25.60;99.90
24250;DHT22;12379;49.820;8.648;2023-08-12T10:31:24;25.40;99.90
24250;DHT22;12379;49.820;8.648;2023-08-12T10:33:51;25.00;99.90
24250;DHT22;12379;49.820;8.648;2023-08-12T10:36:17;24.80;99.90
24250;DHT22;12379;49.820;8.648;2023-08-12T10:38:46;24.40;99.90
24250;DHT22;12379;49.820;8.648;2023-08-12T10:41:15;24.10;99.90
24250;DHT22;12379;49.820;8.648;2023-08-12T10:43:59;24.00;99.90
24250;DHT22;12379;49.820;8.648;2023-08-12T10:46:34;24.00;99.90
24250;DHT22;12379;49.820;8.648;2023-08-12T10:49:10;24.00;99.90
24250;DHT22;12379;49.820;8.648;2023-08-12T10:51:40;23.90;99.90
24250;DHT22;12379;49.820;8.648;2023-08-12T10:54:23;23.70;99.90
24250;DHT22;12379;49.820;8.648;2023-08-12T10:57:04;23.70;99.90
24250;DHT22;12379;49.820;8.648;2023-08-12T10:59:52;23.60;99.90
24250;DHT22;12379;49.820;8.648;2023-08-12T11:02:25;23.50;99.90
24250;DHT22;12379;49.820;8.648;2023-08-12T11:04:57;23.50;99.90
24250;DHT22;12379;49.820;8.648;2023-08-12T11:10:12;23.30;99.90
24250;DHT22;12379;49.820;8.648;2023-08-12T11:12:39;23.20;99.90
24250;DHT22;12379;49.820;8.648;2023-08-12T11:15:05;23.10;99.90
24250;DHT22;12379;49.820;8.648;2023-08-12T11:17:41;22.90;99.90
24250;DHT22;12379;49.820;8.648;2023-08-12T11:20:11;22.80;99.90
24250;DHT22;12379;49.820;8.648;2023-08-12T11:22:39;22.80;99.90
24250;DHT22;12379;49.820;8.648;2023-08-12T11:25:07;22.80;99.90
24250;DHT22;12379;49.820;8.648;2023-08-12T11:27:41;22.80;99.90
24250;DHT22;12379;49.820;8.648;2023-08-12T11:30:08;22.90;99.90
24250;DHT22;12379;49.820;8.648;2023-08-12T11:32:34;22.90;99.90
24250;DHT22;12379;49.820;8.648;2023-08-12T11:35:00;22.90;99.90
24250;DHT22;12379;49.820;8.648;2023-08-12T11:37:26;22.80;99.90
24250;DHT22;12379;49.820;8.648;2023-08-12T11:39:55;22.70;99.90
24250;DHT22;12379;49.820;8.648;2023-08-12T11:42:20;22.60;99.90
24250;DHT22;12379;49.820;8.648;2023-08-12T11:44:46;22.60;99.90
24250;DHT22;12379;49.820;8.648;2023-08-12T11:47:11;22.60;99.90
24250;DHT22;12379;49.820;8.648;2023-08-12T11:49:37;22.50;99.90
24250;DHT22;12379;49.820;8.648;2023-08-12T11:52:03;22.50;99.90
24250;DHT22;12379;49.820;8.648;2023-08-12T11:54:29;22.40;99.90
24250;DHT22;12379;49.820;8.648;2023-08-12T11:56:55;22.40;99.90
24250;DHT22;12379;49.820;8.648;2023-08-12T11:59:22;22.40;99.90
24250;DHT22;12379;49.820;8.648;2023-08-12T12:01:51;22.20;99.90
24250;DHT22;12379;49.820;8.648;2023-08-12T12:04:17;22.10;99.90
24250;DHT22;12379;49.820;8.648;2023-08-12T12:06:46;22.10;99.90
24250;DHT22;12379;49.820;8.648;2023-08-12T12:09:11;22.10;99.90
24250;DHT22;12379;49.820;8.648;2023-08-12T12:11:40;22.00;99.90
24250;DHT22;12379;49.820;8.648;2023-08-12T12:14:10;22.00;99.90
24250;DHT22;12379;49.820;8.648;2023-08-12T12:16:42;22.00;99.90
24250;DHT22;12379;49.820;8.648;2023-08-12T12:19:22;22.10;99.90
24250;DHT22;12379;49.820;8.648;2023-08-12T12:21:50;22.10;99.90
24250;DHT22;12379;49.820;8.648;2023-08-12T12:24:19;22.20;99.90
24250;DHT22;12379;49.820;8.648;2023-08-12T12:26:45;22.20;99.90
24250;DHT22;12379;49.820;8.648;2023-08-12T12:29:12;22.20;99.90
24250;DHT22;12379;49.820;8.648;2023-08-12T12:31:39;22.30;99.90
24250;DHT22;12379;49.820;8.648;2023-08-12T12:34:06;22.40;99.90
24250;DHT22;12379;49.820;8.648;2023-08-12T12:36:37;22.50;99.90
24250;DHT22;12379;49.820;8.648;2023-08-12T12:39:04;22.60;99.90
24250;DHT22;12379;49.820;8.648;2023-08-12T12:41:30;22.70;99.90
24250;DHT22;12379;49.820;8.648;2023-08-12T12:43:55;22.80;99.90
24250;DHT22;12379;49.820;8.648;2023-08-12T12:46:21;22.90;99.90
24250;DHT22;12379;49.820;8.648;2023-08-12T12:48:47;23.00;99.90
24250;DHT22;12379;49.820;8.648;2023-08-12T12:51:13;23.10;99.90
24250;DHT22;12379;49.820;8.648;2023-08-12T12:53:39;23.50;99.90
24250;DHT22;12379;49.820;8.648;2023-08-12T12:56:05;23.80;99.90
24250;DHT22;12379;49.820;8.648;2023-08-12T12:58:32;24.00;99.90
24250;DHT22;12379;49.820;8.648;2023-08-12T13:00:58;24.20;99.90
24250;DHT22;12379;49.820;8.648;2023-08-12T13:03:24;24.40;99.90
24250;DHT22;12379;49.820;8.648;2023-08-12T13:05:50;24.60;99.90
24250;DHT22;12379;49.820;8.648;2023-08-12T13:08:15;24.60;99.90
24250;DHT22;12379;49.820;8.648;2023-08-12T13:10:41;24.60;99.90
24250;DHT22;12379;49.820;8.648;2023-08-12T13:13:06;24.70;99.90
24250;DHT22;12379;49.820;8.648;2023-08-12T13:15:32;24.60;99.90
24250;DHT22;12379;49.820;8.648;2023-08-12T13:17:58;24.40;99.90
24250;DHT22;12379;49.820;8.648;2023-08-12T13:20:23;24.30;99.90
24250;DHT22;12379;49.820;8.648;2023-08-12T13:22:49;24.40;99.90
24250;DHT22;12379;49.820;8.648;2023-08-12T13:25:14;24.60;99.90
24250;DHT22;12379;49.820;8.648;2023-08-12T13:27:40;24.80;99.90
24250;DHT22;12379;49.820;8.648;2023-08-12T13:30:06;24.80;99.90
24250;DHT22;12379;49.820;8.648;2023-08-12T13:32:31;24.70;99.90
24250;DHT22;12379;49.820;8.648;2023-08-12T13:35:00;24.80;99.90
24250;DHT22;12379;49.820;8.648;2023-08-12T13:37:26;24.80;99.90
24250;DHT22;12379;49.820;8.648;2023-08-12T13:39:51;24.70;99.90
24250;DHT22;12379;49.820;8.648;2023-08-12T13:42:17;24.60;99.90
24250;DHT22;12379;49.820;8.648;2023-08-12T13:44:43;24.70;99.90
24250;DHT22;12379;49.820;8.648;2023-08-12T13:47:13;24.80;99.90
24250;DHT22;12379;49.820;8.648;2023-08-12T13:49:39;25.00;99.90
24250;DHT22;12379;49.820;8.648;2023-08-12T13:52:05;24.90;99.90
24250;DHT22;12379;49.820;8.648;2023-08-12T13:54:30;24.80;99.90
24250;DHT22;12379;49.820;8.648;2023-08-12T13:56:56;25.00;99.90
24250;DHT22;12379;49.820;8.648;2023-08-12T13:59:22;25.10;99.90
24250;DHT22;12379;49.820;8.648;2023-08-12T14:01:47;25.10;99.90
24250;DHT22;12379;49.820;8.648;2023-08-12T14:04:14;25.40;99.90
24250;DHT22;12379;49.820;8.648;2023-08-12T14:06:43;25.70;99.90
24250;DHT22;12379;49.820;8.648;2023-08-12T14:09:09;25.70;99.90
24250;DHT22;12379;49.820;8.648;2023-08-12T14:11:35;25.80;99.90
24250;DHT22;12379;49.820;8.648;2023-08-12T14:14:01;25.90;99.90
24250;DHT22;12379;49.820;8.648;2023-08-12T14:16:26;25.90;99.90
24250;DHT22;12379;49.820;8.648;2023-08-12T14:18:52;26.10;99.90
24250;DHT22;12379;49.820;8.648;2023-08-12T14:21:18;26.30;99.90
24250;DHT22;12379;49.820;8.648;2023-08-12T14:23:43;26.20;99.90
24250;DHT22;12379;49.820;8.648;2023-08-12T14:26:09;26.50;99.90
24250;DHT22;12379;49.820;8.648;2023-08-12T14:28:34;26.80;99.90
24250;DHT22;12379;49.820;8.648;2023-08-12T14:31:00;27.00;99.90
24250;DHT22;12379;49.820;8.648;2023-08-12T14:33:26;26.90;99.90
24250;DHT22;12379;49.820;8.648;2023-08-12T14:35:51;26.60;99.90
24250;DHT22;12379;49.820;8.648;2023-08-12T14:38:19;26.40;99.90
24250;DHT22;12379;49.820;8.648;2023-08-12T14:40:48;26.50;99.90
24250;DHT22;12379;49.820;8.648;2023-08-12T14:43:14;26.60;99.90
24250;DHT22;12379;49.820;8.648;2023-08-12T14:45:57;26.80;99.90
24250;DHT22;12379;49.820;8.648;2023-08-12T14:48:23;26.70;99.90
24250;DHT22;12379;49.820;8.648;2023-08-12T14:50:48;26.50;99.90
24250;DHT22;12379;49.820;8.648;2023-08-12T14:53:14;26.30;99.90
24250;DHT22;12379;49.820;8.648;2023-08-12T14:55:40;26.30;99.90
24250;DHT22;12379;49.820;8.648;2023-08-12T14:58:06;26.00;99.90
24250;DHT22;12379;49.820;8.648;2023-08-12T15:00:32;25.90;99.90
24250;DHT22;12379;49.820;8.648;2023-08-12T15:02:59;25.80;99.90
24250;DHT22;12379;49.820;8.648;2023-08-12T15:05:24;25.80;99.90
24250;DHT22;12379;49.820;8.648;2023-08-12T15:07:50;25.80;99.90
24250;DHT22;12379;49.820;8.648;2023-08-12T15:10:16;25.90;99.90
24250;DHT22;12379;49.820;8.648;2023-08-12T15:12:43;26.10;99.90
24250;DHT22;12379;49.820;8.648;2023-08-12T15:15:09;26.20;99.90
24250;DHT22;12379;49.820;8.648;2023-08-12T15:17:35;26.30;99.90
24250;DHT22;12379;49.820;8.648;2023-08-12T15:20:00;26.30;99.90
24250;DHT22;12379;49.820;8.648;2023-08-12T15:22:26;26.30;99.90
24250;DHT22;12379;49.820;8.648;2023-08-12T15:24:52;26.20;99.90
24250;DHT22;12379;49.820;8.648;2023-08-12T15:27:18;26.20;99.90
24250;DHT22;12379;49.820;8.648;2023-08-12T15:29:44;26.20;99.90
24250;DHT22;12379;49.820;8.648;2023-08-12T15:32:09;26.10;99.90